LDSP/SPU METAR and TAF weather

Enter ICAO airport designator
Station Type Date Time Source
LDSP METAR 2022/07/03 13:30 UTC NOAA

LDSP 031330Z 23013KT CAVOK 35/18 Q1014 NOSIG


Station Type Date Time Source
LDSP Decoded METAR 2022/07/03 13:30 UTC NOAA

Split / Resnik, Croatia (LDSP) 43-32N 016-18E 21M
Jul 03, 2022 - 09:30 AM EDT / 2022.07.03 1330 UTC
Wind: from the SW (230 degrees) at 15 MPH (13 KT):0
Visibility: greater than 7 mile(s):0
Temperature: 95 F (35 C)
Heat index: 97.0 F (36.1 C):1
Dew Point: 64 F (18 C)
Relative Humidity: 36%
Pressure (altimeter): 29.94 in. Hg (1014 hPa)
ob: LDSP 031330Z 23013KT CAVOK 35/18 Q1014 NOSIG
cycle: 13

Station Type Date Time Source
LDSP TAF 2022/07/03 12:27 UTC NOAA

TAF LDSP 031125Z 0312/0412 23012KT CAVOK TX35/0312Z TN25/0403Z
BECMG 0317/0319 33005KT
BECMG 0408/0410 23012KT

Example: see airport list